sensor_id;sensor_type;location;lat;lon;timestamp;P1;durP1;ratioP1;P2;durP2;ratioP2
75362;SDS011;64122;51.988;5.892;2022-11-20T00:02:04;14.13;;;6.78;;
75362;SDS011;64122;51.988;5.892;2022-11-20T00:04:34;15.55;;;7.75;;
75362;SDS011;64122;51.988;5.892;2022-11-20T00:07:06;16.73;;;7.63;;
75362;SDS011;64122;51.988;5.892;2022-11-20T00:09:35;14.80;;;9.10;;
75362;SDS011;64122;51.988;5.892;2022-11-20T00:12:04;14.50;;;8.23;;
75362;SDS011;64122;51.988;5.892;2022-11-20T00:14:33;14.25;;;7.00;;
75362;SDS011;64122;51.988;5.892;2022-11-20T00:17:03;14.38;;;7.38;;
75362;SDS011;64122;51.988;5.892;2022-11-20T00:19:32;14.23;;;7.25;;
75362;SDS011;64122;51.988;5.892;2022-11-20T00:22:01;14.82;;;7.55;;
75362;SDS011;64122;51.988;5.892;2022-11-20T00:24:33;14.15;;;7.18;;
75362;SDS011;64122;51.988;5.892;2022-11-20T00:27:02;15.45;;;7.05;;
75362;SDS011;64122;51.988;5.892;2022-11-20T00:29:31;14.10;;;7.38;;
75362;SDS011;64122;51.988;5.892;2022-11-20T00:32:01;11.20;;;6.30;;
75362;SDS011;64122;51.988;5.892;2022-11-20T00:34:30;14.23;;;6.80;;
75362;SDS011;64122;51.988;5.892;2022-11-20T00:36:59;11.60;;;6.00;;
75362;SDS011;64122;51.988;5.892;2022-11-20T00:39:28;12.65;;;6.47;;
75362;SDS011;64122;51.988;5.892;2022-11-20T00:42:00;14.25;;;7.22;;
75362;SDS011;64122;51.988;5.892;2022-11-20T00:44:29;13.63;;;6.60;;
75362;SDS011;64122;51.988;5.892;2022-11-20T00:46:59;13.93;;;6.88;;
75362;SDS011;64122;51.988;5.892;2022-11-20T00:49:28;15.20;;;7.80;;
75362;SDS011;64122;51.988;5.892;2022-11-20T00:51:57;13.90;;;6.63;;
75362;SDS011;64122;51.988;5.892;2022-11-20T00:54:26;14.02;;;6.65;;
75362;SDS011;64122;51.988;5.892;2022-11-20T00:56:55;15.63;;;7.85;;
75362;SDS011;64122;51.988;5.892;2022-11-20T00:59:27;13.35;;;6.85;;
75362;SDS011;64122;51.988;5.892;2022-11-20T01:01:56;12.48;;;6.13;;
75362;SDS011;64122;51.988;5.892;2022-11-20T01:04:26;13.82;;;6.15;;
75362;SDS011;64122;51.988;5.892;2022-11-20T01:06:55;13.43;;;7.20;;
75362;SDS011;64122;51.988;5.892;2022-11-20T01:09:24;12.05;;;6.60;;
75362;SDS011;64122;51.988;5.892;2022-11-20T01:11:54;16.75;;;7.45;;
75362;SDS011;64122;51.988;5.892;2022-11-20T01:14:23;13.82;;;7.22;;
75362;SDS011;64122;51.988;5.892;2022-11-20T01:16:55;14.55;;;6.85;;
75362;SDS011;64122;51.988;5.892;2022-11-20T01:19:24;14.48;;;7.85;;
75362;SDS011;64122;51.988;5.892;2022-11-20T01:21:53;14.88;;;6.70;;
75362;SDS011;64122;51.988;5.892;2022-11-20T01:24:23;13.95;;;6.95;;
75362;SDS011;64122;51.988;5.892;2022-11-20T01:26:53;12.57;;;6.97;;
75362;SDS011;64122;51.988;5.892;2022-11-20T01:29:23;12.75;;;6.57;;
75362;SDS011;64122;51.988;5.892;2022-11-20T01:31:56;13.52;;;6.72;;
75362;SDS011;64122;51.988;5.892;2022-11-20T07:36:04;21.25;;;9.43;;
75362;SDS011;64122;51.988;5.892;2022-11-20T07:38:33;21.17;;;10.10;;
75362;SDS011;64122;51.988;5.892;2022-11-20T07:41:03;22.92;;;10.65;;
75362;SDS011;64122;51.988;5.892;2022-11-20T07:43:33;19.00;;;9.30;;
75362;SDS011;64122;51.988;5.892;2022-11-20T07:46:02;24.05;;;9.52;;
75362;SDS011;64122;51.988;5.892;2022-11-20T07:48:31;20.30;;;11.52;;
75362;SDS011;64122;51.988;5.892;2022-11-20T07:51:01;18.45;;;9.15;;
75362;SDS011;64122;51.988;5.892;2022-11-20T07:53:33;17.92;;;9.25;;
75362;SDS011;64122;51.988;5.892;2022-11-20T07:56:02;18.63;;;9.88;;
75362;SDS011;64122;51.988;5.892;2022-11-20T07:58:31;22.15;;;10.40;;
75362;SDS011;64122;51.988;5.892;2022-11-20T08:01:04;19.58;;;9.85;;
75362;SDS011;64122;51.988;5.892;2022-11-20T08:03:34;20.25;;;10.40;;
75362;SDS011;64122;51.988;5.892;2022-11-20T08:06:07;20.60;;;10.57;;
75362;SDS011;64122;51.988;5.892;2022-11-20T08:08:37;22.17;;;10.38;;
75362;SDS011;64122;51.988;5.892;2022-11-20T08:11:07;18.20;;;10.05;;
75362;SDS011;64122;51.988;5.892;2022-11-20T08:13:48;20.13;;;11.13;;
75362;SDS011;64122;51.988;5.892;2022-11-20T08:16:30;20.65;;;11.30;;
75362;SDS011;64122;51.988;5.892;2022-11-20T08:18:59;20.83;;;11.13;;
75362;SDS011;64122;51.988;5.892;2022-11-20T08:21:32;19.73;;;10.57;;
75362;SDS011;64122;51.988;5.892;2022-11-20T08:24:01;20.92;;;11.40;;
75362;SDS011;64122;51.988;5.892;2022-11-20T08:26:31;22.13;;;10.82;;
75362;SDS011;64122;51.988;5.892;2022-11-20T08:29:01;22.52;;;11.32;;
75362;SDS011;64122;51.988;5.892;2022-11-20T08:31:30;20.02;;;12.43;;
75362;SDS011;64122;51.988;5.892;2022-11-20T08:34:00;20.15;;;10.60;;
75362;SDS011;64122;51.988;5.892;2022-11-20T08:36:32;23.08;;;11.80;;
75362;SDS011;64122;51.988;5.892;2022-11-20T08:39:02;23.13;;;12.05;;
75362;SDS011;64122;51.988;5.892;2022-11-20T08:41:32;20.42;;;11.32;;
75362;SDS011;64122;51.988;5.892;2022-11-20T08:44:03;22.45;;;11.25;;
75362;SDS011;64122;51.988;5.892;2022-11-20T08:46:34;25.08;;;11.48;;
75362;SDS011;64122;51.988;5.892;2022-11-20T08:49:05;23.95;;;11.52;;
75362;SDS011;64122;51.988;5.892;2022-11-20T08:51:39;23.80;;;12.68;;
75362;SDS011;64122;51.988;5.892;2022-11-20T08:54:08;22.40;;;12.07;;
75362;SDS011;64122;51.988;5.892;2022-11-20T08:56:38;21.83;;;11.43;;
75362;SDS011;64122;51.988;5.892;2022-11-20T08:59:07;29.40;;;12.48;;
75362;SDS011;64122;51.988;5.892;2022-11-20T09:01:36;22.23;;;12.30;;
75362;SDS011;64122;51.988;5.892;2022-11-20T09:04:05;19.05;;;11.18;;
75362;SDS011;64122;51.988;5.892;2022-11-20T09:06:35;20.55;;;10.88;;
75362;SDS011;64122;51.988;5.892;2022-11-20T09:09:07;17.67;;;11.00;;
75362;SDS011;64122;51.988;5.892;2022-11-20T09:11:36;21.48;;;10.77;;
75362;SDS011;64122;51.988;5.892;2022-11-20T09:14:05;19.98;;;11.98;;
75362;SDS011;64122;51.988;5.892;2022-11-20T09:16:35;19.70;;;11.13;;
75362;SDS011;64122;51.988;5.892;2022-11-20T09:19:04;22.23;;;11.82;;
75362;SDS011;64122;51.988;5.892;2022-11-20T09:21:33;19.40;;;11.27;;
75362;SDS011;64122;51.988;5.892;2022-11-20T09:24:04;19.40;;;11.57;;
75362;SDS011;64122;51.988;5.892;2022-11-20T09:26:36;23.63;;;11.90;;
75362;SDS011;64122;51.988;5.892;2022-11-20T09:29:06;20.42;;;11.00;;
75362;SDS011;64122;51.988;5.892;2022-11-20T09:31:35;22.52;;;12.77;;
75362;SDS011;64122;51.988;5.892;2022-11-20T09:34:04;23.48;;;12.52;;
75362;SDS011;64122;51.988;5.892;2022-11-20T09:36:34;18.80;;;10.90;;
75362;SDS011;64122;51.988;5.892;2022-11-20T09:39:03;21.35;;;11.95;;
75362;SDS011;64122;51.988;5.892;2022-11-20T09:41:40;22.95;;;12.02;;
75362;SDS011;64122;51.988;5.892;2022-11-20T09:44:30;23.95;;;12.50;;
75362;SDS011;64122;51.988;5.892;2022-11-20T09:47:08;21.42;;;11.50;;
75362;SDS011;64122;51.988;5.892;2022-11-20T09:49:51;23.25;;;12.90;;
75362;SDS011;64122;51.988;5.892;2022-11-20T09:52:45;20.20;;;11.73;;
75362;SDS011;64122;51.988;5.892;2022-11-20T09:55:20;23.95;;;12.05;;
75362;SDS011;64122;51.988;5.892;2022-11-20T09:57:52;21.40;;;12.02;;
75362;SDS011;64122;51.988;5.892;2022-11-20T10:00:22;23.42;;;12.48;;
75362;SDS011;64122;51.988;5.892;2022-11-20T10:02:53;21.58;;;11.65;;
75362;SDS011;64122;51.988;5.892;2022-11-20T10:05:29;24.10;;;12.88;;
75362;SDS011;64122;51.988;5.892;2022-11-20T10:08:08;19.85;;;11.93;;
75362;SDS011;64122;51.988;5.892;2022-11-20T10:10:44;21.42;;;12.82;;
75362;SDS011;64122;51.988;5.892;2022-11-20T10:13:20;21.08;;;12.77;;
75362;SDS011;64122;51.988;5.892;2022-11-20T10:16:02;24.02;;;12.00;;
75362;SDS011;64122;51.988;5.892;2022-11-20T10:18:44;23.38;;;12.60;;
75362;SDS011;64122;51.988;5.892;2022-11-20T10:21:29;20.90;;;11.95;;
75362;SDS011;64122;51.988;5.892;2022-11-20T10:24:17;24.45;;;12.40;;
75362;SDS011;64122;51.988;5.892;2022-11-20T10:27:10;20.25;;;11.93;;
75362;SDS011;64122;51.988;5.892;2022-11-20T10:29:59;22.13;;;12.88;;
75362;SDS011;64122;51.988;5.892;2022-11-20T10:32:31;21.52;;;11.85;;
75362;SDS011;64122;51.988;5.892;2022-11-20T10:35:05;22.60;;;12.07;;
75362;SDS011;64122;51.988;5.892;2022-11-20T10:37:44;23.05;;;12.65;;
75362;SDS011;64122;51.988;5.892;2022-11-20T10:40:18;21.48;;;11.77;;
75362;SDS011;64122;51.988;5.892;2022-11-20T10:42:56;21.88;;;12.25;;
75362;SDS011;64122;51.988;5.892;2022-11-20T10:45:35;22.70;;;13.07;;
75362;SDS011;64122;51.988;5.892;2022-11-20T10:48:15;22.63;;;12.50;;
75362;SDS011;64122;51.988;5.892;2022-11-20T10:50:50;22.75;;;13.32;;
75362;SDS011;64122;51.988;5.892;2022-11-20T10:53:36;24.45;;;13.20;;
75362;SDS011;64122;51.988;5.892;2022-11-20T10:56:17;21.15;;;12.23;;
75362;SDS011;64122;51.988;5.892;2022-11-20T10:58:52;23.33;;;12.32;;
75362;SDS011;64122;51.988;5.892;2022-11-20T11:01:39;23.00;;;13.55;;
75362;SDS011;64122;51.988;5.892;2022-11-20T11:04:15;21.13;;;12.38;;
75362;SDS011;64122;51.988;5.892;2022-11-20T11:07:00;21.58;;;12.45;;
75362;SDS011;64122;51.988;5.892;2022-11-20T11:09:37;24.75;;;13.15;;
75362;SDS011;64122;51.988;5.892;2022-11-20T11:12:11;21.80;;;12.68;;
75362;SDS011;64122;51.988;5.892;2022-11-20T11:14:45;25.48;;;13.63;;
75362;SDS011;64122;51.988;5.892;2022-11-20T11:17:22;22.63;;;13.27;;
75362;SDS011;64122;51.988;5.892;2022-11-20T11:22:26;25.20;;;12.93;;
75362;SDS011;64122;51.988;5.892;2022-11-20T11:24:57;24.48;;;13.02;;
75362;SDS011;64122;51.988;5.892;2022-11-20T11:27:26;23.20;;;12.70;;
75362;SDS011;64122;51.988;5.892;2022-11-20T11:30:03;23.40;;;13.23;;
75362;SDS011;64122;51.988;5.892;2022-11-20T11:32:44;21.92;;;12.60;;
75362;SDS011;64122;51.988;5.892;2022-11-20T11:35:21;22.98;;;12.55;;
75362;SDS011;64122;51.988;5.892;2022-11-20T11:37:53;25.48;;;14.43;;
75362;SDS011;64122;51.988;5.892;2022-11-20T11:40:31;26.27;;;14.18;;
75362;SDS011;64122;51.988;5.892;2022-11-20T11:43:04;26.52;;;14.68;;
75362;SDS011;64122;51.988;5.892;2022-11-20T11:46:16;23.92;;;12.57;;
75362;SDS011;64122;51.988;5.892;2022-11-20T11:49:00;22.88;;;13.10;;
75362;SDS011;64122;51.988;5.892;2022-11-20T11:51:46;21.85;;;12.20;;
75362;SDS011;64122;51.988;5.892;2022-11-20T11:54:27;23.92;;;13.70;;
75362;SDS011;64122;51.988;5.892;2022-11-20T11:57:03;22.20;;;13.32;;
75362;SDS011;64122;51.988;5.892;2022-11-20T11:59:41;23.45;;;13.30;;
75362;SDS011;64122;51.988;5.892;2022-11-20T12:02:25;21.73;;;12.45;;
75362;SDS011;64122;51.988;5.892;2022-11-20T12:05:04;21.58;;;12.73;;
75362;SDS011;64122;51.988;5.892;2022-11-20T12:07:44;22.85;;;13.00;;
75362;SDS011;64122;51.988;5.892;2022-11-20T12:10:17;23.58;;;12.70;;
75362;SDS011;64122;51.988;5.892;2022-11-20T12:15:26;23.50;;;13.13;;
75362;SDS011;64122;51.988;5.892;2022-11-20T12:17:57;31.85;;;16.58;;
75362;SDS011;64122;51.988;5.892;2022-11-20T12:20:32;24.60;;;14.70;;
75362;SDS011;64122;51.988;5.892;2022-11-20T12:23:09;23.27;;;13.18;;
75362;SDS011;64122;51.988;5.892;2022-11-20T12:25:47;23.13;;;14.18;;
75362;SDS011;64122;51.988;5.892;2022-11-20T12:31:26;25.42;;;14.77;;
75362;SDS011;64122;51.988;5.892;2022-11-20T12:34:13;26.20;;;15.43;;
75362;SDS011;64122;51.988;5.892;2022-11-20T12:36:56;24.75;;;14.23;;
75362;SDS011;64122;51.988;5.892;2022-11-20T12:42:12;21.17;;;13.30;;
75362;SDS011;64122;51.988;5.892;2022-11-20T12:45:21;24.65;;;14.32;;
75362;SDS011;64122;51.988;5.892;2022-11-20T12:48:04;20.48;;;12.15;;
75362;SDS011;64122;51.988;5.892;2022-11-20T12:54:29;25.70;;;13.25;;
75362;SDS011;64122;51.988;5.892;2022-11-20T12:57:13;23.13;;;13.82;;
75362;SDS011;64122;51.988;5.892;2022-11-20T12:59:50;21.65;;;13.02;;
75362;SDS011;64122;51.988;5.892;2022-11-20T13:02:34;23.38;;;14.18;;
75362;SDS011;64122;51.988;5.892;2022-11-20T13:05:18;25.20;;;15.05;;
75362;SDS011;64122;51.988;5.892;2022-11-20T13:07:50;26.80;;;14.77;;
75362;SDS011;64122;51.988;5.892;2022-11-20T13:10:26;20.77;;;12.38;;
75362;SDS011;64122;51.988;5.892;2022-11-20T13:13:00;23.08;;;13.55;;
75362;SDS011;64122;51.988;5.892;2022-11-20T13:15:37;27.48;;;14.35;;
75362;SDS011;64122;51.988;5.892;2022-11-20T13:18:14;23.10;;;13.50;;
75362;SDS011;64122;51.988;5.892;2022-11-20T13:20:44;25.00;;;15.82;;
75362;SDS011;64122;51.988;5.892;2022-11-20T13:23:24;28.35;;;16.65;;
75362;SDS011;64122;51.988;5.892;2022-11-20T13:26:14;22.70;;;14.90;;
75362;SDS011;64122;51.988;5.892;2022-11-20T13:28:46;25.95;;;13.93;;
75362;SDS011;64122;51.988;5.892;2022-11-20T13:31:28;24.45;;;14.00;;
75362;SDS011;64122;51.988;5.892;2022-11-20T13:34:00;24.50;;;13.38;;
75362;SDS011;64122;51.988;5.892;2022-11-20T13:36:32;23.38;;;14.82;;
75362;SDS011;64122;51.988;5.892;2022-11-20T13:39:02;27.33;;;14.27;;
75362;SDS011;64122;51.988;5.892;2022-11-20T13:41:35;26.58;;;15.48;;
75362;SDS011;64122;51.988;5.892;2022-11-20T13:44:09;24.67;;;14.65;;
75362;SDS011;64122;51.988;5.892;2022-11-20T13:46:42;26.85;;;14.38;;
75362;SDS011;64122;51.988;5.892;2022-11-20T13:49:16;29.13;;;15.52;;
75362;SDS011;64122;51.988;5.892;2022-11-20T13:51:50;27.13;;;14.82;;
75362;SDS011;64122;51.988;5.892;2022-11-20T14:00:25;26.80;;;15.27;;
75362;SDS011;64122;51.988;5.892;2022-11-20T14:03:02;27.50;;;14.85;;
75362;SDS011;64122;51.988;5.892;2022-11-20T14:05:40;26.33;;;15.00;;
75362;SDS011;64122;51.988;5.892;2022-11-20T14:08:24;26.35;;;14.02;;
75362;SDS011;64122;51.988;5.892;2022-11-20T14:11:11;29.02;;;14.57;;
75362;SDS011;64122;51.988;5.892;2022-11-20T14:13:57;26.38;;;14.27;;
75362;SDS011;64122;51.988;5.892;2022-11-20T14:16:29;28.88;;;15.27;;
75362;SDS011;64122;51.988;5.892;2022-11-20T14:19:17;26.08;;;14.25;;
75362;SDS011;64122;51.988;5.892;2022-11-20T14:22:09;28.48;;;15.98;;
75362;SDS011;64122;51.988;5.892;2022-11-20T14:24:44;26.20;;;14.82;;
75362;SDS011;64122;51.988;5.892;2022-11-20T14:27:14;26.45;;;14.77;;
75362;SDS011;64122;51.988;5.892;2022-11-20T14:29:49;29.23;;;15.13;;
75362;SDS011;64122;51.988;5.892;2022-11-20T14:32:19;26.67;;;14.70;;
75362;SDS011;64122;51.988;5.892;2022-11-20T14:34:52;29.20;;;15.95;;
75362;SDS011;64122;51.988;5.892;2022-11-20T14:37:21;28.27;;;15.20;;
75362;SDS011;64122;51.988;5.892;2022-11-20T14:39:54;28.92;;;16.48;;
75362;SDS011;64122;51.988;5.892;2022-11-20T14:42:25;31.85;;;17.10;;
75362;SDS011;64122;51.988;5.892;2022-11-20T14:44:59;27.67;;;16.08;;
75362;SDS011;64122;51.988;5.892;2022-11-20T14:47:29;35.33;;;16.27;;
75362;SDS011;64122;51.988;5.892;2022-11-20T14:49:59;30.60;;;15.68;;
75362;SDS011;64122;51.988;5.892;2022-11-20T14:52:30;28.80;;;16.20;;
75362;SDS011;64122;51.988;5.892;2022-11-20T14:54:59;30.52;;;16.80;;
75362;SDS011;64122;51.988;5.892;2022-11-20T14:57:29;28.83;;;16.20;;
75362;SDS011;64122;51.988;5.892;2022-11-20T15:00:07;26.83;;;15.85;;
75362;SDS011;64122;51.988;5.892;2022-11-20T15:02:48;28.05;;;15.98;;
75362;SDS011;64122;51.988;5.892;2022-11-20T15:05:20;30.17;;;16.73;;
75362;SDS011;64122;51.988;5.892;2022-11-20T15:07:51;30.63;;;16.27;;
75362;SDS011;64122;51.988;5.892;2022-11-20T15:10:32;28.20;;;16.08;;
75362;SDS011;64122;51.988;5.892;2022-11-20T15:13:05;30.40;;;16.52;;
75362;SDS011;64122;51.988;5.892;2022-11-20T15:15:44;31.38;;;16.88;;
75362;SDS011;64122;51.988;5.892;2022-11-20T15:18:16;31.15;;;18.95;;
75362;SDS011;64122;51.988;5.892;2022-11-20T15:20:47;33.88;;;18.30;;
75362;SDS011;64122;51.988;5.892;2022-11-20T15:23:17;29.80;;;16.83;;
75362;SDS011;64122;51.988;5.892;2022-11-20T15:25:48;28.63;;;15.32;;
75362;SDS011;64122;51.988;5.892;2022-11-20T15:28:18;32.65;;;17.35;;
75362;SDS011;64122;51.988;5.892;2022-11-20T15:30:52;29.17;;;16.17;;
75362;SDS011;64122;51.988;5.892;2022-11-20T15:33:21;30.27;;;16.33;;
75362;SDS011;64122;51.988;5.892;2022-11-20T15:35:51;28.88;;;16.35;;
75362;SDS011;64122;51.988;5.892;2022-11-20T15:38:20;31.13;;;17.88;;
75362;SDS011;64122;51.988;5.892;2022-11-20T15:40:49;30.10;;;17.20;;
75362;SDS011;64122;51.988;5.892;2022-11-20T15:43:19;31.85;;;18.67;;
75362;SDS011;64122;51.988;5.892;2022-11-20T15:45:49;33.40;;;16.92;;
75362;SDS011;64122;51.988;5.892;2022-11-20T15:48:24;35.13;;;17.80;;
75362;SDS011;64122;51.988;5.892;2022-11-20T15:50:56;29.38;;;17.17;;
75362;SDS011;64122;51.988;5.892;2022-11-20T15:53:28;34.90;;;17.42;;
75362;SDS011;64122;51.988;5.892;2022-11-20T15:55:57;32.65;;;18.23;;
75362;SDS011;64122;51.988;5.892;2022-11-20T15:58:26;30.85;;;17.05;;
75362;SDS011;64122;51.988;5.892;2022-11-20T16:00:58;33.28;;;18.13;;
75362;SDS011;64122;51.988;5.892;2022-11-20T16:03:27;32.00;;;18.60;;
75362;SDS011;64122;51.988;5.892;2022-11-20T16:05:57;36.78;;;20.52;;
75362;SDS011;64122;51.988;5.892;2022-11-20T16:08:26;33.55;;;18.27;;
75362;SDS011;64122;51.988;5.892;2022-11-20T16:10:55;33.13;;;18.85;;
75362;SDS011;64122;51.988;5.892;2022-11-20T16:13:25;34.97;;;16.88;;
75362;SDS011;64122;51.988;5.892;2022-11-20T16:16:11;31.25;;;17.85;;
75362;SDS011;64122;51.988;5.892;2022-11-20T16:18:47;33.45;;;18.73;;
75362;SDS011;64122;51.988;5.892;2022-11-20T16:21:17;32.72;;;18.33;;
75362;SDS011;64122;51.988;5.892;2022-11-20T16:23:46;33.97;;;16.67;;
75362;SDS011;64122;51.988;5.892;2022-11-20T16:26:16;35.53;;;18.15;;
75362;SDS011;64122;51.988;5.892;2022-11-20T16:28:46;37.13;;;19.52;;
75362;SDS011;64122;51.988;5.892;2022-11-20T16:31:18;33.42;;;17.63;;
75362;SDS011;64122;51.988;5.892;2022-11-20T16:33:48;35.08;;;16.70;;
75362;SDS011;64122;51.988;5.892;2022-11-20T16:36:19;33.97;;;17.75;;
75362;SDS011;64122;51.988;5.892;2022-11-20T16:38:51;33.45;;;17.48;;
75362;SDS011;64122;51.988;5.892;2022-11-20T16:41:21;40.97;;;19.15;;
75362;SDS011;64122;51.988;5.892;2022-11-20T16:43:52;26.98;;;15.57;;
75362;SDS011;64122;51.988;5.892;2022-11-20T16:46:26;33.35;;;16.63;;
75362;SDS011;64122;51.988;5.892;2022-11-20T16:48:57;29.92;;;16.33;;
75362;SDS011;64122;51.988;5.892;2022-11-20T16:51:28;33.03;;;17.65;;
75362;SDS011;64122;51.988;5.892;2022-11-20T16:54:00;32.08;;;17.42;;
75362;SDS011;64122;51.988;5.892;2022-11-20T16:56:29;33.75;;;17.65;;
75362;SDS011;64122;51.988;5.892;2022-11-20T16:58:59;30.40;;;16.67;;
75362;SDS011;64122;51.988;5.892;2022-11-20T17:01:31;33.10;;;16.17;;
75362;SDS011;64122;51.988;5.892;2022-11-20T17:04:04;32.15;;;17.38;;
75362;SDS011;64122;51.988;5.892;2022-11-20T17:06:35;31.48;;;17.77;;
75362;SDS011;64122;51.988;5.892;2022-11-20T17:09:05;32.90;;;18.00;;
75362;SDS011;64122;51.988;5.892;2022-11-20T17:11:36;31.73;;;17.15;;
75362;SDS011;64122;51.988;5.892;2022-11-20T17:14:05;33.63;;;17.10;;
75362;SDS011;64122;51.988;5.892;2022-11-20T17:16:37;41.15;;;19.83;;
75362;SDS011;64122;51.988;5.892;2022-11-20T17:19:07;30.45;;;15.63;;
75362;SDS011;64122;51.988;5.892;2022-11-20T17:21:37;31.65;;;16.17;;
75362;SDS011;64122;51.988;5.892;2022-11-20T17:24:07;31.75;;;16.10;;
75362;SDS011;64122;51.988;5.892;2022-11-20T17:26:38;33.10;;;17.02;;
75362;SDS011;64122;51.988;5.892;2022-11-20T17:29:09;37.22;;;17.75;;
75362;SDS011;64122;51.988;5.892;2022-11-20T17:31:43;29.80;;;16.83;;
75362;SDS011;64122;51.988;5.892;2022-11-20T17:34:13;40.45;;;16.48;;
75362;SDS011;64122;51.988;5.892;2022-11-20T17:36:43;32.40;;;17.05;;
75362;SDS011;64122;51.988;5.892;2022-11-20T17:39:12;29.27;;;16.48;;
75362;SDS011;64122;51.988;5.892;2022-11-20T17:41:43;29.60;;;16.65;;
75362;SDS011;64122;51.988;5.892;2022-11-20T17:44:32;36.20;;;18.35;;
75362;SDS011;64122;51.988;5.892;2022-11-20T17:47:05;34.35;;;18.00;;
75362;SDS011;64122;51.988;5.892;2022-11-20T17:49:34;33.00;;;17.10;;
75362;SDS011;64122;51.988;5.892;2022-11-20T17:52:03;33.95;;;17.52;;
75362;SDS011;64122;51.988;5.892;2022-11-20T17:54:33;36.83;;;17.13;;
75362;SDS011;64122;51.988;5.892;2022-11-20T17:57:02;38.75;;;19.33;;
75362;SDS011;64122;51.988;5.892;2022-11-20T17:59:44;66.30;;;31.42;;
75362;SDS011;64122;51.988;5.892;2022-11-20T18:02:16;37.15;;;19.25;;
75362;SDS011;64122;51.988;5.892;2022-11-20T18:04:46;31.30;;;15.80;;
75362;SDS011;64122;51.988;5.892;2022-11-20T18:07:15;31.50;;;16.88;;
75362;SDS011;64122;51.988;5.892;2022-11-20T18:09:44;30.80;;;15.70;;
75362;SDS011;64122;51.988;5.892;2022-11-20T18:12:13;31.63;;;17.23;;
75362;SDS011;64122;51.988;5.892;2022-11-20T18:14:43;32.80;;;17.13;;
75362;SDS011;64122;51.988;5.892;2022-11-20T18:17:13;29.55;;;15.45;;
75362;SDS011;64122;51.988;5.892;2022-11-20T18:19:45;26.50;;;14.55;;
75362;SDS011;64122;51.988;5.892;2022-11-20T18:22:16;30.70;;;15.90;;
75362;SDS011;64122;51.988;5.892;2022-11-20T18:24:48;28.85;;;15.63;;
75362;SDS011;64122;51.988;5.892;2022-11-20T18:27:18;30.35;;;15.13;;
75362;SDS011;64122;51.988;5.892;2022-11-20T18:29:48;23.42;;;12.43;;
75362;SDS011;64122;51.988;5.892;2022-11-20T18:32:21;27.15;;;14.05;;
75362;SDS011;64122;51.988;5.892;2022-11-20T18:34:50;27.95;;;14.27;;
75362;SDS011;64122;51.988;5.892;2022-11-20T18:37:19;17.30;;;9.38;;
75362;SDS011;64122;51.988;5.892;2022-11-20T18:39:48;20.35;;;10.38;;
75362;SDS011;64122;51.988;5.892;2022-11-20T18:42:18;22.17;;;11.32;;
75362;SDS011;64122;51.988;5.892;2022-11-20T18:44:59;20.83;;;11.55;;
75362;SDS011;64122;51.988;5.892;2022-11-20T18:47:33;20.10;;;10.52;;
75362;SDS011;64122;51.988;5.892;2022-11-20T18:50:05;21.98;;;10.80;;
75362;SDS011;64122;51.988;5.892;2022-11-20T18:52:37;19.95;;;10.55;;
75362;SDS011;64122;51.988;5.892;2022-11-20T18:55:09;20.77;;;9.75;;
75362;SDS011;64122;51.988;5.892;2022-11-20T18:57:38;19.33;;;10.75;;
75362;SDS011;64122;51.988;5.892;2022-11-20T19:00:08;21.98;;;11.73;;
75362;SDS011;64122;51.988;5.892;2022-11-20T19:02:41;21.33;;;11.35;;
75362;SDS011;64122;51.988;5.892;2022-11-20T19:05:11;20.38;;;10.90;;
75362;SDS011;64122;51.988;5.892;2022-11-20T19:07:41;20.30;;;9.82;;
75362;SDS011;64122;51.988;5.892;2022-11-20T19:10:11;20.63;;;11.52;;
75362;SDS011;64122;51.988;5.892;2022-11-20T19:12:41;23.13;;;10.98;;
75362;SDS011;64122;51.988;5.892;2022-11-20T19:15:10;22.60;;;12.15;;
75362;SDS011;64122;51.988;5.892;2022-11-20T19:17:42;18.27;;;9.75;;
75362;SDS011;64122;51.988;5.892;2022-11-20T19:20:11;22.58;;;12.07;;
75362;SDS011;64122;51.988;5.892;2022-11-20T19:22:41;23.85;;;12.45;;
75362;SDS011;64122;51.988;5.892;2022-11-20T19:25:10;22.17;;;12.82;;
75362;SDS011;64122;51.988;5.892;2022-11-20T19:27:39;21.88;;;11.40;;
75362;SDS011;64122;51.988;5.892;2022-11-20T19:30:09;22.30;;;11.60;;
75362;SDS011;64122;51.988;5.892;2022-11-20T19:32:42;20.30;;;11.93;;
75362;SDS011;64122;51.988;5.892;2022-11-20T19:35:11;22.70;;;11.68;;
75362;SDS011;64122;51.988;5.892;2022-11-20T19:37:41;25.98;;;13.38;;
75362;SDS011;64122;51.988;5.892;2022-11-20T19:40:10;24.73;;;12.32;;
75362;SDS011;64122;51.988;5.892;2022-11-20T19:42:39;24.23;;;12.63;;
75362;SDS011;64122;51.988;5.892;2022-11-20T19:45:09;26.05;;;13.98;;
75362;SDS011;64122;51.988;5.892;2022-11-20T19:47:38;26.67;;;13.57;;
75362;SDS011;64122;51.988;5.892;2022-11-20T19:50:10;26.10;;;14.32;;
75362;SDS011;64122;51.988;5.892;2022-11-20T19:52:40;25.45;;;11.70;;
75362;SDS011;64122;51.988;5.892;2022-11-20T19:55:10;26.63;;;14.82;;
75362;SDS011;64122;51.988;5.892;2022-11-20T19:57:39;27.27;;;14.13;;
75362;SDS011;64122;51.988;5.892;2022-11-20T20:00:09;26.45;;;14.75;;
75362;SDS011;64122;51.988;5.892;2022-11-20T20:02:39;27.65;;;13.05;;
75362;SDS011;64122;51.988;5.892;2022-11-20T20:05:11;23.63;;;12.57;;
75362;SDS011;64122;51.988;5.892;2022-11-20T20:07:42;24.52;;;13.27;;
75362;SDS011;64122;51.988;5.892;2022-11-20T20:10:11;24.15;;;13.35;;
75362;SDS011;64122;51.988;5.892;2022-11-20T20:12:42;27.95;;;12.98;;
75362;SDS011;64122;51.988;5.892;2022-11-20T20:15:13;25.23;;;13.65;;
75362;SDS011;64122;51.988;5.892;2022-11-20T20:17:43;28.05;;;14.40;;
75362;SDS011;64122;51.988;5.892;2022-11-20T20:20:15;29.33;;;13.80;;
75362;SDS011;64122;51.988;5.892;2022-11-20T20:22:44;25.08;;;14.48;;
75362;SDS011;64122;51.988;5.892;2022-11-20T20:25:14;22.50;;;12.48;;
75362;SDS011;64122;51.988;5.892;2022-11-20T20:27:43;27.42;;;15.43;;
75362;SDS011;64122;51.988;5.892;2022-11-20T20:30:12;25.48;;;14.65;;
75362;SDS011;64122;51.988;5.892;2022-11-20T20:32:42;28.80;;;15.75;;
75362;SDS011;64122;51.988;5.892;2022-11-20T20:35:11;27.10;;;14.88;;
75362;SDS011;64122;51.988;5.892;2022-11-20T20:37:43;27.08;;;14.50;;
75362;SDS011;64122;51.988;5.892;2022-11-20T20:40:12;23.10;;;12.95;;
75362;SDS011;64122;51.988;5.892;2022-11-20T20:42:43;27.90;;;14.40;;
75362;SDS011;64122;51.988;5.892;2022-11-20T20:45:13;29.85;;;16.50;;
75362;SDS011;64122;51.988;5.892;2022-11-20T20:47:42;27.85;;;15.65;;
75362;SDS011;64122;51.988;5.892;2022-11-20T20:50:12;28.55;;;15.50;;
75362;SDS011;64122;51.988;5.892;2022-11-20T20:52:49;31.30;;;15.82;;
75362;SDS011;64122;51.988;5.892;2022-11-20T20:55:18;30.15;;;15.63;;
75362;SDS011;64122;51.988;5.892;2022-11-20T20:57:47;27.23;;;15.27;;
75362;SDS011;64122;51.988;5.892;2022-11-20T21:00:18;27.20;;;15.05;;
75362;SDS011;64122;51.988;5.892;2022-11-20T21:02:47;28.27;;;15.50;;
75362;SDS011;64122;51.988;5.892;2022-11-20T21:05:17;28.30;;;15.20;;
75362;SDS011;64122;51.988;5.892;2022-11-20T21:07:49;29.27;;;15.65;;
75362;SDS011;64122;51.988;5.892;2022-11-20T21:10:30;30.15;;;16.58;;
75362;SDS011;64122;51.988;5.892;2022-11-20T21:13:00;28.52;;;16.25;;
75362;SDS011;64122;51.988;5.892;2022-11-20T21:15:29;30.73;;;17.33;;
75362;SDS011;64122;51.988;5.892;2022-11-20T21:17:58;31.30;;;17.08;;
75362;SDS011;64122;51.988;5.892;2022-11-20T21:20:28;30.98;;;16.75;;